Time;durP1;ratioP1;P1;durP2;ratioP2;P2;SDS_P1;SDS_P2;PMS_P1;PMS_P2;Temp;Humidity;BMP_temperature;BMP_pressure;BME280_temperature;BME280_humidity;BME280_pressure;Samples;Min_cycle;Max_cycle;Signal;HPM_P1;HPM_P2
2022/02/14 00:04:28;;;;;;;48.58;20.92;;;;;;;2.26;93.73;99743.69;20938933;28;20049;-66
2022/02/14 00:14:29;;;;;;;41.60;20.83;;;;;;;2.12;94.56;99737.56;20940185;28;20057;-66
2022/02/14 00:24:31;;;;;;;43.15;20.13;;;;;;;1.92;95.32;99711.59;20940804;28;20044;-66
2022/02/14 00:34:32;;;;;;;40.35;20.17;;;;;;;1.87;95.39;99705.53;20947892;28;20052;-67
2022/02/14 00:44:34;;;;;;;37.03;19.05;;;;;;;1.88;95.05;99688.31;20955596;28;20041;-67
2022/02/14 00:54:35;;;;;;;34.75;17.65;;;;;;;1.89;93.99;99687.47;20953890;28;20060;-66
2022/02/14 01:04:37;;;;;;;29.83;15.32;;;;;;;1.76;94.95;99684.78;20952283;28;20060;-66
2022/02/14 01:14:38;;;;;;;27.65;14.75;;;;;;;1.79;95.64;99665.88;20952558;28;20059;-65
2022/02/14 01:24:40;;;;;;;25.52;11.40;;;;;;;1.90;94.81;99651.31;20953097;28;20041;-66
2022/02/14 01:34:41;;;;;;;21.70;11.07;;;;;;;1.88;95.36;99642.72;20951795;28;20068;-66
2022/02/14 01:44:46;;;;;;;23.08;12.55;;;;;;;1.74;95.91;99634.00;20950232;28;20110;-66
2022/02/14 01:54:49;;;;;;;22.38;11.48;;;;;;;1.73;96.21;99619.38;20949479;28;20099;-67
2022/02/14 02:04:50;;;;;;;18.70;10.30;;;;;;;1.70;97.75;99603.88;20947853;28;20098;-66
2022/02/14 02:14:56;;;;;;;18.42;10.75;;;;;;;1.61;97.27;99602.09;20947891;28;20057;-66
2022/02/14 02:24:58;;;;;;;19.42;10.07;;;;;;;1.55;95.55;99594.31;20948194;28;20480;-66
2022/02/14 02:35:01;;;;;;;21.75;9.50;;;;;;;1.46;95.86;99596.81;20947291;28;20044;-66
2022/02/14 02:45:03;;;;;;;16.02;8.48;;;;;;;1.31;96.53;99576.91;20944463;28;20544;-66
2022/02/14 02:55:05;;;;;;;18.05;9.25;;;;;;;1.23;96.92;99574.25;20943668;28;20854;-66
2022/02/14 03:05:07;;;;;;;18.67;8.55;;;;;;;1.28;98.21;99551.09;20944057;28;20060;-66
2022/02/14 03:15:09;;;;;;;17.33;8.52;;;;;;;1.43;97.55;99533.16;20944759;28;20059;-66
2022/02/14 03:25:13;;;;;;;15.30;9.18;;;;;;;1.49;96.74;99529.78;20943399;28;20048;-68
2022/02/14 03:35:14;;;;;;;26.30;11.77;;;;;;;1.45;97.14;99521.16;20934932;28;20055;-65
2022/02/14 03:45:16;;;;;;;28.55;12.93;;;;;;;1.35;96.83;99515.91;20942507;28;20307;-66
2022/02/14 03:55:18;;;;;;;26.15;11.60;;;;;;;1.09;97.80;99513.97;20941541;28;20055;-65
2022/02/14 04:05:19;;;;;;;28.30;12.75;;;;;;;0.99;98.65;99507.03;20938825;28;20044;-66
2022/02/14 04:15:22;;;;;;;30.00;13.10;;;;;;;0.88;99.49;99499.22;20939453;28;20114;-66
2022/02/14 04:25:23;;;;;;;25.00;11.80;;;;;;;0.81;98.97;99486.25;20939271;28;20053;-65
2022/02/14 04:35:27;;;;;;;19.92;10.63;;;;;;;0.79;98.32;99480.22;20939979;28;20048;-66
2022/02/14 04:45:29;;;;;;;18.05;10.48;;;;;;;0.71;99.18;99478.44;20940213;28;20055;-66
2022/02/14 04:55:30;;;;;;;19.95;10.15;;;;;;;0.63;99.69;99482.69;20938474;28;20495;-66
2022/02/14 05:05:32;;;;;;;19.48;10.23;;;;;;;0.52;99.89;99484.25;20938246;28;20094;-66
2022/02/14 05:15:33;;;;;;;19.30;9.70;;;;;;;0.37;99.61;99492.69;20937647;28;20060;-66
2022/02/14 05:25:35;;;;;;;18.08;9.00;;;;;;;0.34;100.00;99491.81;20952384;28;20044;-66
2022/02/14 05:35:36;;;;;;;18.52;9.43;;;;;;;0.34;100.00;99489.25;20950979;28;20095;-66
2022/02/14 05:45:43;;;;;;;16.50;8.70;;;;;;;0.24;100.00;99494.28;20950417;28;20057;-67
2022/02/14 05:55:44;;;;;;;17.58;8.45;;;;;;;0.22;100.00;99501.13;20949043;28;20049;-67
2022/02/14 06:05:45;;;;;;;18.15;9.07;;;;;;;0.16;100.00;99495.91;20948401;28;20110;-66
2022/02/14 06:15:47;;;;;;;16.98;8.52;;;;;;;0.11;100.00;99497.56;20948858;28;20076;-67
2022/02/14 06:25:48;;;;;;;17.55;8.82;;;;;;;0.27;100.00;99502.88;20948764;28;20052;-66
2022/02/14 06:35:52;;;;;;;17.10;8.77;;;;;;;0.63;100.00;99510.16;20948325;28;20128;-66
2022/02/14 06:45:53;;;;;;;21.73;10.43;;;;;;;0.98;100.00;99516.47;20945724;28;20052;-66
2022/02/14 06:55:55;;;;;;;20.92;10.40;;;;;;;1.40;100.00;99524.56;20944184;28;20049;-67
2022/02/14 07:05:57;;;;;;;22.95;10.75;;;;;;;1.69;99.80;99523.00;20944736;28;20049;-66
2022/02/14 07:15:59;;;;;;;20.35;11.75;;;;;;;1.94;100.00;99524.00;20943328;28;20112;-67
2022/02/14 07:26:00;;;;;;;19.25;11.23;;;;;;;2.19;100.00;99545.63;20943489;28;20044;-70
2022/02/14 07:36:03;;;;;;;20.65;11.50;;;;;;;2.36;100.00;99522.47;20941040;28;20052;-69
2022/02/14 07:46:04;;;;;;;24.55;13.20;;;;;;;2.57;100.00;99516.47;20941661;28;20048;-68
2022/02/14 07:56:09;;;;;;;18.23;9.48;;;;;;;2.80;100.00;99504.47;20940111;28;20538;-69
2022/02/14 08:06:11;;;;;;;18.90;9.53;;;;;;;3.16;100.00;99488.94;20939699;28;20113;-68
2022/02/14 08:16:13;;;;;;;15.70;8.80;;;;;;;3.46;100.00;99485.50;20950713;28;20052;-68
2022/02/14 08:26:15;;;;;;;25.60;14.27;;;;;;;3.72;100.00;99472.47;20956028;28;20066;-68
2022/02/14 08:36:18;;;;;;;16.60;9.52;;;;;;;3.69;100.00;99493.19;20954577;28;20059;-69
2022/02/14 08:46:22;;;;;;;21.17;10.18;;;;;;;3.65;100.00;99497.53;20974368;22;20114;-77
2022/02/14 08:56:24;;;;;;;24.35;12.15;;;;;;;3.82;99.25;99475.03;20963179;28;20049;-77
2022/02/14 09:06:27;;;;;;;23.50;11.80;;;;;;;4.17;97.88;99460.19;20943160;28;20045;-78
2022/02/14 09:16:47;;;;;;;20.02;9.15;;;;;;;4.63;96.44;99456.47;20948219;28;20041;-77
2022/02/14 09:26:49;;;;;;;19.10;9.75;;;;;;;4.97;96.11;99451.03;20985499;28;20557;-78
2022/02/14 09:36:56;;;;;;;18.25;9.10;;;;;;;5.42;92.64;99448.91;20969116;28;20096;-78
2022/02/14 09:46:57;;;;;;;20.23;10.32;;;;;;;5.88;94.13;99440.59;20970226;28;20526;-78
2022/02/14 09:56:59;;;;;;;29.50;13.15;;;;;;;6.31;91.71;99438.31;20970065;28;20049;-78
2022/02/14 10:07:10;;;;;;;21.13;9.68;;;;;;;6.91;90.03;99440.91;20945693;28;20111;-78
2022/02/14 10:17:18;;;;;;;14.65;5.93;;;;;;;7.92;84.38;99426.00;20975838;28;20111;-78
2022/02/14 10:27:31;;;;;;;13.43;4.63;;;;;;;8.29;81.27;99422.63;20977193;28;20478;-78
2022/02/14 10:37:42;;;;;;;8.70;3.78;;;;;;;9.41;77.40;99417.31;20954254;28;20067;-78
2022/02/14 10:47:46;;;;;;;12.40;3.78;;;;;;;9.89;74.13;99409.00;20974238;28;20066;-78
2022/02/14 10:57:49;;;;;;;15.97;4.43;;;;;;;10.26;73.87;99398.34;20949426;28;20044;-78
2022/02/14 11:07:52;;;;;;;10.25;4.97;;;;;;;10.45;74.24;99381.19;20956762;28;20049;-78
2022/02/14 11:17:59;;;;;;;6.95;2.20;;;;;;;11.11;71.58;99388.63;20965393;28;20118;-78
2022/02/14 11:28:09;;;;;;;8.50;2.03;;;;;;;11.65;67.67;99369.25;20950274;28;20049;-78
2022/02/14 11:38:11;;;;;;;6.50;2.88;;;;;;;11.86;65.60;99352.75;20935403;28;20052;-79
2022/02/14 11:48:26;;;;;;;8.48;2.20;;;;;;;11.83;66.60;99352.84;20944726;28;20044;-78
2022/02/14 11:58:46;;;;;;;;;;;;;;;11.93;67.20;99342.88;20964211;28;20044;-79
2022/02/14 12:09:01;;;;;;;6.90;2.13;;;;;;;12.31;65.41;99349.25;21014661;28;20068;-79
2022/02/14 12:29:32;;;;;;;5.88;1.90;;;;;;;12.29;65.26;99341.44;20979183;28;20424;-79
2022/02/14 12:39:45;;;;;;;8.52;2.60;;;;;;;12.24;64.38;99332.03;21007247;28;20051;-79
2022/02/14 12:50:09;;;;;;;6.50;2.13;;;;;;;12.00;67.10;99345.19;20964782;28;20079;-78
2022/02/14 13:00:31;;;;;;;6.13;2.10;;;;;;;12.17;66.23;99330.56;20940441;28;20482;-78
2022/02/14 13:10:47;;;;;;;6.32;2.00;;;;;;;12.12;65.28;99327.25;20989617;28;20050;-78
2022/02/14 13:20:56;;;;;;;7.10;2.47;;;;;;;12.26;65.24;99320.59;20994561;28;20421;-78
2022/02/14 13:31:02;;;;;;;11.07;2.08;;;;;;;12.41;64.18;99331.34;20948168;28;20559;-78
2022/02/14 13:41:05;;;;;;;7.28;2.60;;;;;;;12.10;65.70;99344.84;20957270;28;20041;-77
2022/02/14 13:51:25;;;;;;;4.72;2.22;;;;;;;11.88;67.06;99350.94;20943586;28;20743;-78
2022/02/14 14:01:35;;;;;;;7.22;2.92;;;;;;;10.95;81.20;99376.03;20941118;28;20045;-77
2022/02/14 14:11:37;;;;;;;11.80;3.45;;;;;;;10.22;89.77;99394.09;20935457;28;20079;-77
2022/02/14 14:21:38;;;;;;;6.82;2.92;;;;;;;9.92;93.76;99416.78;20975732;28;20075;-77
2022/02/14 14:31:40;;;;;;;6.57;2.55;;;;;;;9.62;98.79;99416.72;20956567;28;20067;-77
2022/02/14 14:41:41;;;;;;;7.43;2.67;;;;;;;9.58;98.67;99422.94;20951822;28;20386;-78
2022/02/14 14:51:43;;;;;;;5.40;2.50;;;;;;;9.56;96.54;99437.78;20971961;28;20040;-78
2022/02/14 15:01:44;;;;;;;5.65;1.83;;;;;;;9.34;98.35;99453.19;20949113;28;20048;-77
2022/02/14 15:11:46;;;;;;;5.57;1.85;;;;;;;9.14;100.00;99465.88;21019117;28;20048;-78
2022/02/14 15:21:48;;;;;;;10.63;4.30;;;;;;;9.11;100.00;99489.47;20976184;28;20048;-78
2022/02/14 15:31:50;;;;;;;12.10;6.13;;;;;;;8.91;100.00;99501.25;20935221;28;20045;-78
2022/02/14 15:41:51;;;;;;;5.72;2.70;;;;;;;8.62;100.00;99508.88;20956240;28;20489;-79
2022/02/14 15:51:54;;;;;;;5.85;2.47;;;;;;;8.44;100.00;99510.16;20999726;23;20404;-72
2022/02/14 16:01:55;;;;;;;7.60;3.28;;;;;;;8.39;100.00;99515.47;20972507;28;20051;-67
2022/02/14 16:11:57;;;;;;;8.07;3.10;;;;;;;8.33;100.00;99528.56;20973077;28;20060;-66
2022/02/14 16:21:59;;;;;;;6.97;2.72;;;;;;;8.20;100.00;99538.41;20973482;28;20048;-66
2022/02/14 16:32:02;;;;;;;5.50;2.65;;;;;;;8.10;100.00;99556.88;20968838;28;20044;-67
2022/02/14 16:42:08;;;;;;;9.73;3.40;;;;;;;7.96;100.00;99575.38;20972922;28;20413;-67
2022/02/14 16:52:10;;;;;;;6.10;2.47;;;;;;;7.90;100.00;99581.53;20971991;28;20098;-67
2022/02/14 17:02:12;;;;;;;7.35;3.00;;;;;;;7.69;100.00;99595.81;20970895;28;20040;-67
2022/02/14 17:12:13;;;;;;;7.05;3.63;;;;;;;7.66;100.00;99597.59;20973626;28;20056;-68
2022/02/14 17:22:15;;;;;;;5.97;3.15;;;;;;;7.61;100.00;99610.72;20986976;28;20055;-67
2022/02/14 17:32:17;;;;;;;9.25;3.67;;;;;;;7.54;100.00;99613.47;20985533;28;20257;-68
2022/02/14 17:42:18;;;;;;;9.30;5.10;;;;;;;7.45;100.00;99612.72;20985435;28;20044;-67
2022/02/14 17:52:21;;;;;;;8.73;4.40;;;;;;;7.35;100.00;99612.88;20983833;28;20106;-68
2022/02/14 18:02:23;;;;;;;7.45;3.55;;;;;;;7.15;100.00;99619.25;20976306;28;20106;-68
2022/02/14 18:12:24;;;;;;;6.45;3.63;;;;;;;7.09;100.00;99628.88;20982601;28;20048;-68
2022/02/14 18:22:26;;;;;;;10.52;4.70;;;;;;;7.08;100.00;99638.41;20981824;28;20099;-67
2022/02/14 18:32:28;;;;;;;9.35;5.10;;;;;;;7.13;100.00;99651.38;20979548;28;20052;-68
2022/02/14 18:42:29;;;;;;;10.52;5.75;;;;;;;7.17;100.00;99648.72;20974977;28;20040;-68
2022/02/14 18:52:31;;;;;;;10.95;6.85;;;;;;;7.20;100.00;99646.06;20978552;28;20048;-68
2022/02/14 19:02:34;;;;;;;11.48;8.10;;;;;;;7.13;100.00;99653.97;20973243;28;20090;-67
2022/02/14 19:12:41;;;;;;;12.52;7.88;;;;;;;7.09;100.00;99647.09;20974579;28;20144;-68
2022/02/14 19:22:43;;;;;;;11.82;7.63;;;;;;;7.09;100.00;99654.91;20975859;28;20068;-67
2022/02/14 19:33:48;;;;;;;10.63;6.97;;;;;;;7.00;100.00;99653.31;20973908;28;20052;-67
2022/02/14 19:43:06;;;;;;;12.68;7.40;;;;;;;6.92;100.00;99661.19;20970112;28;20044;-67
2022/02/14 19:53:08;;;;;;;11.38;7.22;;;;;;;6.81;100.00;99668.28;20974187;28;20129;-67
2022/02/14 20:03:09;;;;;;;14.82;8.55;;;;;;;6.75;100.00;99688.28;20974002;28;20048;-67
2022/02/14 20:13:11;;;;;;;12.90;7.22;;;;;;;6.65;100.00;99698.78;20970255;28;20048;-67
2022/02/14 20:23:13;;;;;;;11.43;7.03;;;;;;;6.60;100.00;99704.94;20973610;28;20481;-67
2022/02/14 20:33:14;;;;;;;11.27;7.18;;;;;;;6.66;100.00;99712.69;20972329;28;20398;-67
2022/02/14 20:43:16;;;;;;;13.95;8.25;;;;;;;6.66;100.00;99715.28;20972314;28;20055;-67
2022/02/14 20:53:18;;;;;;;14.77;9.13;;;;;;;6.49;100.00;99722.41;20984151;28;20087;-67
2022/02/14 21:03:19;;;;;;;17.88;10.98;;;;;;;6.40;100.00;99724.19;20987045;28;20040;-67
2022/02/14 21:13:27;;;;;;;16.98;9.32;;;;;;;6.42;100.00;99735.47;20986566;28;20049;-68
2022/02/14 21:23:29;;;;;;;11.95;8.13;;;;;;;6.49;100.00;99732.81;20985316;28;20052;-67
2022/02/14 21:33:31;;;;;;;13.77;7.53;;;;;;;6.51;100.00;99725.84;20984924;28;20048;-66
2022/02/14 21:43:32;;;;;;;15.02;8.00;;;;;;;6.57;100.00;99733.59;20984234;28;20390;-66
2022/02/14 21:53:34;;;;;;;10.95;6.55;;;;;;;6.57;100.00;99742.25;20979532;28;20535;-65
2022/02/14 22:03:36;;;;;;;11.75;7.03;;;;;;;6.62;100.00;99765.63;20982422;28;20074;-66
2022/02/14 22:13:37;;;;;;;9.35;5.38;;;;;;;6.64;100.00;99764.72;20984777;28;20494;-65
2022/02/14 22:23:39;;;;;;;6.97;4.35;;;;;;;6.57;100.00;99767.41;20984015;28;20056;-66
2022/02/14 22:33:40;;;;;;;7.53;3.80;;;;;;;6.50;100.00;99770.94;20981567;28;20074;-66
2022/02/14 22:43:42;;;;;;;6.95;3.67;;;;;;;6.40;100.00;99764.94;20979353;28;20053;-65
2022/02/14 22:53:44;;;;;;;6.93;4.10;;;;;;;6.30;100.00;99771.97;20974593;28;20049;-66
2022/02/14 23:03:45;;;;;;;9.25;4.35;;;;;;;6.10;100.00;99777.34;20980232;28;20105;-66
2022/02/14 23:24:08;;;;;;;8.93;4.15;;;;;;;5.84;100.00;99774.00;20984882;28;20052;-66
2022/02/14 23:34:09;;;;;;;7.88;4.43;;;;;;;5.58;100.00;99784.56;20984433;28;20044;-65
2022/02/14 23:44:11;;;;;;;10.43;5.43;;;;;;;5.27;100.00;99787.31;20982737;28;20052;-65
2022/02/14 23:54:12;;;;;;;9.75;5.90;;;;;;;5.06;100.00;99784.78;20981667;28;20143;-65
